createdAt,value
2019-06-10T00:01:34.469Z,21.60
2019-06-10T00:04:06.342Z,21.50
2019-06-10T00:06:34.085Z,21.40
2019-06-10T00:09:06.069Z,21.40
2019-06-10T00:11:33.431Z,21.40
2019-06-10T00:14:03.954Z,21.30
2019-06-10T00:16:32.858Z,21.40
2019-06-10T00:19:06.061Z,21.40
2019-06-10T00:21:32.432Z,21.30
2019-06-10T00:24:02.568Z,21.20
2019-06-10T00:26:31.956Z,21.20
2019-06-10T00:29:03.143Z,21.20
2019-06-10T00:31:50.995Z,21.30
2019-06-10T00:34:20.914Z,21.20
2019-06-10T00:36:50.841Z,21.20
2019-06-10T00:39:22.240Z,21.20
2019-06-10T00:41:52.125Z,21.10
2019-06-10T00:44:21.263Z,21.10
2019-06-10T00:46:51.610Z,21.10
2019-06-10T00:49:21.402Z,21.00
2019-06-10T00:51:51.042Z,21.00
2019-06-10T00:54:21.969Z,21.00
2019-06-10T00:56:51.745Z,21.00
2019-06-10T00:59:22.067Z,20.90
2019-06-10T01:01:51.284Z,20.90
2019-06-10T01:04:21.667Z,20.90
2019-06-10T01:06:51.547Z,20.80
2019-06-10T01:09:21.890Z,20.80
2019-06-10T01:11:51.917Z,20.80
2019-06-10T01:14:21.652Z,20.80
2019-06-10T01:16:50.764Z,20.70
2019-06-10T01:19:21.899Z,20.70
2019-06-10T01:21:51.205Z,20.70
2019-06-10T01:24:22.349Z,20.60
2019-06-10T01:26:50.721Z,20.60
2019-06-10T01:29:21.074Z,20.60
2019-06-10T01:31:51.272Z,20.60
2019-06-10T01:34:21.766Z,20.60
2019-06-10T01:36:51.062Z,20.60
2019-06-10T01:39:22.403Z,20.50
2019-06-10T01:41:51.229Z,20.60
2019-06-10T01:44:22.095Z,20.50
2019-06-10T01:46:51.616Z,20.60
2019-06-10T01:49:21.296Z,20.60
2019-06-10T01:51:51.581Z,20.50
2019-06-10T01:54:21.320Z,20.50
2019-06-10T01:56:51.076Z,20.50
2019-06-10T01:59:22.102Z,20.50
2019-06-10T02:02:01.447Z,20.50
2019-06-10T02:04:32.042Z,20.40
2019-06-10T02:07:01.465Z,20.40
2019-06-10T02:09:31.072Z,20.40
2019-06-10T02:12:02.225Z,20.30
2019-06-10T02:14:31.806Z,20.30
2019-06-10T02:17:01.327Z,20.30
2019-06-10T02:19:31.175Z,20.30
2019-06-10T02:22:01.216Z,20.30
2019-06-10T02:24:31.601Z,20.20
2019-06-10T02:27:01.084Z,20.30
2019-06-10T02:29:30.798Z,20.20
2019-06-10T02:32:04.237Z,20.20
2019-06-10T02:34:36.659Z,20.20
2019-06-10T02:37:04.367Z,20.20
2019-06-10T02:39:35.122Z,20.10
2019-06-10T02:42:04.516Z,20.10
2019-06-10T02:44:37.485Z,20.10
2019-06-10T02:47:04.289Z,20.00
2019-06-10T02:49:50.688Z,20.10
2019-06-10T02:52:05.401Z,20.00
2019-06-10T02:54:35.958Z,20.00
2019-06-10T02:57:05.085Z,20.00
2019-06-10T02:59:36.426Z,20.00
2019-06-10T03:02:04.772Z,19.90
2019-06-10T03:04:37.675Z,20.00
2019-06-10T03:07:05.229Z,20.00
2019-06-10T03:09:35.753Z,19.90
2019-06-10T03:12:04.947Z,19.70
2019-06-10T03:14:34.126Z,19.90
2019-06-10T03:17:04.534Z,19.90
2019-06-10T03:19:44.176Z,19.90
2019-06-10T03:22:03.839Z,19.90
2019-06-10T03:24:32.893Z,19.90
2019-06-10T03:27:02.664Z,19.90
2019-06-10T03:29:32.765Z,19.90
2019-06-10T03:32:05.170Z,19.90
2019-06-10T03:34:40.557Z,20.00
2019-06-10T03:37:03.246Z,19.90
2019-06-10T03:39:32.343Z,19.90
2019-06-10T03:42:02.246Z,20.00
2019-06-10T03:44:33.020Z,19.90
2019-06-10T03:47:02.856Z,19.90
2019-06-10T03:49:32.220Z,19.90
2019-06-10T03:52:02.478Z,19.90
2019-06-10T03:54:32.570Z,19.80
2019-06-10T03:57:02.859Z,19.90
2019-06-10T03:59:32.428Z,19.90
2019-06-10T04:02:02.299Z,19.90
2019-06-10T04:04:32.776Z,19.90
2019-06-10T04:07:03.827Z,19.90
2019-06-10T04:09:33.065Z,19.90
2019-06-10T04:12:02.171Z,19.90
2019-06-10T04:14:32.722Z,19.90
2019-06-10T04:17:02.722Z,19.90
2019-06-10T04:19:32.790Z,20.00
2019-06-10T04:22:02.592Z,19.90
2019-06-10T04:24:32.718Z,19.90
2019-06-10T04:27:02.837Z,20.00
2019-06-10T04:29:32.903Z,20.00
2019-06-10T04:32:03.101Z,20.00
2019-06-10T04:34:33.306Z,20.00
2019-06-10T04:37:03.132Z,20.10
2019-06-10T04:39:33.711Z,20.10
2019-06-10T04:42:02.967Z,20.10
2019-06-10T04:44:32.949Z,20.20
2019-06-10T04:47:02.730Z,20.10
2019-06-10T04:49:32.700Z,20.10
2019-06-10T04:52:03.120Z,20.10
2019-06-10T04:54:33.257Z,20.10
2019-06-10T04:57:02.478Z,20.20
2019-06-10T04:59:33.607Z,20.20
2019-06-10T05:02:02.801Z,20.20
2019-06-10T05:04:32.973Z,20.10
2019-06-10T05:07:02.242Z,20.10
2019-06-10T05:09:33.350Z,20.20
2019-06-10T05:12:02.893Z,20.10
2019-06-10T05:14:33.491Z,20.10
2019-06-10T05:17:02.589Z,20.20
2019-06-10T05:19:33.779Z,20.20
2019-06-10T05:22:03.084Z,20.20
2019-06-10T05:24:34.443Z,20.20
2019-06-10T05:27:02.841Z,20.20
2019-06-10T05:29:33.914Z,20.20
2019-06-10T05:32:02.639Z,20.30
2019-06-10T05:34:34.522Z,20.30
2019-06-10T05:37:02.705Z,20.30
2019-06-10T05:39:34.728Z,20.30
2019-06-10T05:42:03.303Z,20.30
2019-06-10T05:44:34.449Z,20.30
2019-06-10T05:47:03.585Z,20.30
2019-06-10T05:49:34.287Z,20.30
2019-06-10T05:52:03.451Z,20.40
2019-06-10T05:54:34.937Z,20.40
2019-06-10T05:57:03.043Z,20.40
2019-06-10T05:59:34.090Z,20.50
2019-06-10T06:02:03.991Z,20.50
2019-06-10T06:04:35.584Z,20.50
2019-06-10T06:07:03.601Z,20.50
2019-06-10T06:09:35.136Z,20.50
2019-06-10T06:12:03.003Z,20.50
2019-06-10T06:14:34.265Z,20.60
2019-06-10T06:17:02.648Z,20.70
2019-06-10T06:19:33.684Z,20.70
2019-06-10T06:22:02.345Z,20.80
2019-06-10T06:24:33.948Z,20.80
2019-06-10T06:27:02.568Z,20.80
2019-06-10T06:29:33.865Z,20.80
2019-06-10T06:32:02.681Z,20.80
2019-06-10T06:34:33.707Z,20.90
2019-06-10T06:37:02.477Z,20.90
2019-06-10T06:39:33.420Z,20.90
2019-06-10T06:42:02.352Z,20.90
2019-06-10T06:44:33.057Z,21.00
2019-06-10T06:47:02.725Z,21.00
2019-06-10T06:49:32.834Z,21.10
2019-06-10T06:52:02.908Z,21.20
2019-06-10T06:54:33.430Z,21.10
2019-06-10T06:57:03.509Z,21.30
2019-06-10T06:59:34.242Z,21.30
2019-06-10T07:02:03.130Z,21.30
2019-06-10T07:04:33.935Z,21.40
2019-06-10T07:07:02.770Z,21.40
2019-06-10T07:09:34.366Z,21.50
2019-06-10T07:12:04.526Z,21.50
2019-06-10T07:14:35.928Z,21.50
2019-06-10T07:17:04.305Z,21.40
2019-06-10T07:19:35.036Z,21.50
2019-06-10T07:22:12.259Z,21.50
2019-06-10T07:24:37.213Z,21.60
2019-06-10T07:27:04.966Z,21.60
2019-06-10T07:29:35.873Z,21.60
2019-06-10T07:32:04.548Z,21.70
2019-06-10T07:34:35.513Z,21.70
2019-06-10T07:37:03.849Z,21.70
2019-06-10T07:39:34.974Z,21.70
2019-06-10T07:42:03.877Z,21.70
2019-06-10T07:44:33.426Z,21.80
2019-06-10T07:47:03.745Z,21.90
2019-06-10T07:49:33.873Z,22.00
2019-06-10T07:52:12.964Z,22.10
2019-06-10T07:54:34.780Z,22.20
2019-06-10T07:57:04.469Z,22.40
2019-06-10T07:59:33.853Z,22.50
2019-06-10T08:02:03.130Z,22.50
2019-06-10T08:04:33.586Z,22.70
2019-06-10T08:07:03.333Z,22.80
2019-06-10T08:09:34.223Z,22.90
2019-06-10T08:12:05.831Z,23.00
2019-06-10T08:14:33.820Z,23.20
2019-06-10T08:17:03.213Z,23.20
2019-06-10T08:19:37.625Z,23.30
2019-06-10T08:22:03.079Z,23.40
2019-06-10T08:24:32.937Z,23.50
2019-06-10T08:27:02.662Z,23.60
2019-06-10T08:29:33.018Z,23.70
2019-06-10T08:32:03.325Z,23.80
2019-06-10T08:34:32.967Z,24.00
2019-06-10T08:37:04.238Z,24.10
2019-06-10T08:39:33.452Z,24.30
2019-06-10T08:42:03.130Z,24.50
2019-06-10T08:44:32.725Z,24.50
2019-06-10T08:47:03.072Z,24.70
2019-06-10T08:49:32.696Z,24.70
2019-06-10T08:52:02.705Z,24.80
2019-06-10T08:54:32.416Z,24.90
2019-06-10T08:57:04.329Z,25.10
2019-06-10T08:59:32.707Z,25.20
2019-06-10T09:02:02.955Z,25.30
2019-06-10T09:04:33.084Z,25.40
2019-06-10T09:07:04.159Z,25.60
2019-06-10T09:09:33.560Z,25.70
2019-06-10T09:12:03.586Z,25.50
2019-06-10T09:14:33.725Z,25.60
2019-06-10T09:17:03.439Z,25.90
2019-06-10T09:19:33.265Z,25.70
2019-06-10T09:22:03.462Z,25.80
2019-06-10T09:24:33.164Z,26.00
2019-06-10T09:27:02.926Z,26.10
2019-06-10T09:29:32.894Z,26.30
2019-06-10T09:32:02.245Z,26.60
2019-06-10T09:34:33.029Z,26.90
2019-06-10T09:37:03.958Z,27.10
2019-06-10T09:39:32.838Z,27.40
2019-06-10T09:42:06.100Z,27.60
2019-06-10T09:44:33.393Z,27.90
2019-06-10T09:47:03.488Z,28.30
2019-06-10T09:49:33.043Z,28.60
2019-06-10T09:52:03.455Z,29.00
2019-06-10T09:54:33.486Z,29.10
2019-06-10T09:57:03.385Z,29.20
2019-06-10T09:59:32.393Z,29.50
2019-06-10T10:02:03.675Z,29.70
2019-06-10T10:04:32.704Z,29.80
2019-06-10T10:07:03.083Z,29.90
2019-06-10T10:09:36.757Z,29.90
2019-06-10T10:12:03.067Z,30.00
2019-06-10T10:14:33.542Z,30.00
2019-06-10T10:17:04.800Z,29.90
2019-06-10T10:19:33.268Z,30.00
2019-06-10T10:22:03.018Z,30.10
2019-06-10T10:24:34.039Z,30.10
2019-06-10T10:27:08.323Z,30.20
2019-06-10T10:29:33.617Z,30.40
2019-06-10T10:32:02.698Z,30.60
2019-06-10T10:34:33.272Z,30.60
2019-06-10T10:37:02.888Z,30.50
2019-06-10T10:39:32.726Z,30.40
2019-06-10T10:42:03.344Z,30.10
2019-06-10T10:44:32.386Z,30.10
2019-06-10T10:47:03.681Z,30.00
2019-06-10T10:49:32.567Z,29.80
2019-06-10T10:52:02.651Z,29.60
2019-06-10T10:54:35.976Z,29.50
2019-06-10T10:57:02.713Z,29.50
2019-06-10T10:59:33.237Z,29.60
2019-06-10T11:02:02.529Z,29.70
2019-06-10T11:04:32.906Z,29.80
2019-06-10T11:07:02.210Z,29.90
2019-06-10T11:09:33.107Z,30.00
2019-06-10T11:12:02.868Z,29.90
2019-06-10T11:14:34.011Z,29.90
2019-06-10T11:17:03.293Z,29.80
2019-06-10T11:19:32.972Z,29.70
2019-06-10T11:22:02.919Z,29.60
2019-06-10T11:24:37.669Z,29.60
2019-06-10T11:27:03.208Z,29.50
2019-06-10T11:29:32.877Z,29.40
2019-06-10T11:32:03.058Z,29.40
2019-06-10T11:34:33.215Z,29.30
2019-06-10T11:37:02.477Z,29.20
2019-06-10T11:39:33.294Z,29.10
2019-06-10T11:42:02.899Z,29.20
2019-06-10T11:44:33.884Z,29.30
2019-06-10T11:47:03.306Z,29.40
2019-06-10T11:49:32.726Z,29.50
2019-06-10T11:52:03.263Z,29.60
2019-06-10T11:54:37.142Z,29.60
2019-06-10T11:57:02.886Z,29.70
2019-06-10T11:59:32.754Z,29.60
2019-06-10T12:02:05.574Z,29.60
2019-06-10T12:04:32.430Z,29.60
2019-06-10T12:07:02.351Z,29.60
2019-06-10T12:09:33.422Z,29.60
2019-06-10T12:12:12.949Z,29.60
2019-06-10T12:14:43.136Z,29.70
2019-06-10T12:17:24.471Z,29.80
2019-06-10T12:19:43.336Z,30.10
2019-06-10T12:22:13.395Z,30.40
2019-06-10T12:24:43.256Z,30.50
2019-06-10T12:27:13.064Z,30.60
2019-06-10T12:29:42.370Z,30.60
2019-06-10T12:32:13.355Z,30.60
2019-06-10T12:34:45.277Z,30.60
2019-06-10T12:37:15.822Z,30.60
2019-06-10T12:39:42.936Z,30.50
2019-06-10T12:42:14.230Z,30.40
2019-06-10T12:44:42.865Z,30.40
2019-06-10T12:47:11.890Z,30.30
2019-06-10T12:49:42.720Z,30.40
2019-06-10T12:52:12.609Z,30.60
2019-06-10T12:54:42.299Z,30.60
2019-06-10T12:57:12.345Z,30.40
2019-06-10T12:59:43.030Z,30.40
2019-06-10T13:02:21.953Z,30.30
2019-06-10T13:04:42.986Z,30.30
2019-06-10T13:07:12.665Z,30.10
2019-06-10T13:09:43.866Z,30.20
2019-06-10T13:12:13.017Z,30.10
2019-06-10T13:14:43.551Z,30.10
2019-06-10T13:17:13.058Z,30.10
2019-06-10T13:19:43.265Z,30.10
2019-06-10T13:22:12.671Z,30.00
2019-06-10T13:24:42.391Z,29.80
2019-06-10T13:27:11.451Z,29.70
2019-06-10T13:29:42.828Z,29.50
2019-06-10T13:32:10.908Z,29.40
2019-06-10T13:34:42.190Z,29.40
2019-06-10T13:37:14.928Z,29.40
2019-06-10T13:39:42.923Z,29.40
2019-06-10T13:42:13.614Z,29.30
2019-06-10T13:44:42.772Z,29.30
2019-06-10T13:47:14.709Z,29.10
2019-06-10T13:49:42.921Z,28.90
2019-06-10T13:52:16.398Z,28.90
2019-06-10T13:54:46.103Z,28.70
2019-06-10T13:57:15.402Z,28.40
2019-06-10T13:59:46.408Z,28.30
2019-06-10T14:02:14.692Z,28.20
2019-06-10T14:04:43.634Z,28.10
2019-06-10T14:07:17.172Z,28.00
2019-06-10T14:09:43.490Z,28.00
2019-06-10T14:12:16.630Z,28.00
2019-06-10T14:14:42.976Z,28.00
2019-06-10T14:17:13.413Z,28.00
2019-06-10T14:19:43.281Z,28.00
2019-06-10T14:22:16.119Z,28.00
2019-06-10T14:24:43.056Z,28.10
2019-06-10T14:27:17.399Z,28.10
2019-06-10T14:29:42.485Z,28.20
2019-06-10T14:32:13.900Z,28.20
2019-06-10T14:34:42.114Z,28.20
2019-06-10T14:37:12.812Z,28.40
2019-06-10T14:39:42.244Z,28.40
2019-06-10T14:42:14.599Z,28.50
2019-06-10T14:44:42.205Z,28.50
2019-06-10T14:47:13.613Z,28.70
2019-06-10T14:49:42.494Z,28.70
2019-06-10T14:52:13.889Z,28.80
2019-06-10T14:54:42.832Z,28.70
2019-06-10T14:57:13.821Z,28.80
2019-06-10T14:59:42.658Z,28.70
2019-06-10T15:02:12.849Z,28.60
2019-06-10T15:04:42.593Z,28.40
2019-06-10T15:07:11.585Z,28.30
2019-06-10T15:09:43.036Z,28.20
2019-06-10T15:12:11.672Z,28.00
2019-06-10T15:14:42.734Z,27.90
2019-06-10T15:17:12.478Z,27.70
2019-06-10T15:19:42.531Z,27.50
2019-06-10T15:22:12.648Z,27.50
2019-06-10T15:24:42.749Z,27.40
2019-06-10T15:27:21.410Z,27.30
2019-06-10T15:29:43.149Z,27.20
2019-06-10T15:32:26.303Z,27.20
2019-06-10T15:34:43.047Z,27.20
2019-06-10T15:37:16.738Z,27.10
2019-06-10T15:39:42.750Z,27.10
2019-06-10T15:42:11.651Z,27.10
2019-06-10T15:44:52.019Z,27.00
2019-06-10T15:47:13.928Z,27.00
2019-06-10T15:49:41.409Z,27.00
2019-06-10T15:52:13.264Z,27.00
2019-06-10T15:54:42.651Z,27.00
2019-06-10T15:57:29.609Z,27.00
2019-06-10T15:59:42.779Z,27.00
2019-06-10T16:02:14.279Z,27.10
2019-06-10T16:04:43.215Z,27.10
2019-06-10T16:07:14.650Z,26.90
2019-06-10T16:09:42.846Z,27.10
2019-06-10T16:12:14.355Z,27.00
2019-06-10T16:14:42.539Z,27.00
2019-06-10T16:17:12.931Z,27.00
2019-06-10T16:19:43.157Z,27.00
2019-06-10T16:22:12.806Z,27.00
2019-06-10T16:24:42.759Z,27.00
2019-06-10T16:27:12.625Z,27.00
2019-06-10T16:29:42.398Z,27.00
2019-06-10T16:32:13.080Z,26.90
2019-06-10T16:34:42.237Z,26.90
2019-06-10T16:37:12.875Z,26.80
2019-06-10T16:39:43.117Z,26.70
2019-06-10T16:42:32.209Z,26.70
2019-06-10T16:45:02.502Z,26.60
2019-06-10T16:47:32.673Z,26.50
2019-06-10T16:50:03.274Z,26.40
2019-06-10T16:52:34.235Z,26.40
2019-06-10T16:55:04.204Z,26.30
2019-06-10T16:57:33.516Z,26.20
2019-06-10T17:00:10.724Z,26.10
2019-06-10T17:02:33.174Z,26.10
2019-06-10T17:05:03.165Z,26.00
2019-06-10T17:07:32.902Z,26.00
2019-06-10T17:10:02.452Z,25.90
2019-06-10T17:12:33.085Z,25.80
2019-06-10T17:15:03.454Z,25.90
2019-06-10T17:17:32.837Z,24.40
2019-06-10T17:20:03.804Z,25.70
2019-06-10T17:22:33.404Z,25.70
2019-06-10T17:25:02.386Z,25.90
2019-06-10T17:27:32.697Z,25.80
2019-06-10T17:30:02.915Z,25.90
2019-06-10T17:32:32.950Z,25.80
2019-06-10T17:35:02.429Z,25.90
2019-06-10T17:37:33.764Z,25.70
2019-06-10T17:40:02.644Z,25.90
2019-06-10T17:42:37.922Z,25.80
2019-06-10T17:45:02.590Z,25.90
2019-06-10T17:47:34.501Z,25.80
2019-06-10T17:50:02.481Z,25.80
2019-06-10T17:52:33.188Z,25.70
2019-06-10T17:55:03.333Z,25.50
2019-06-10T17:57:36.088Z,25.50
2019-06-10T18:00:11.004Z,25.40
2019-06-10T18:02:37.092Z,25.40
2019-06-10T18:05:06.703Z,25.30
2019-06-10T18:07:35.867Z,25.10
2019-06-10T18:10:05.877Z,24.90
2019-06-10T18:12:35.846Z,24.80
2019-06-10T18:15:05.789Z,24.70
2019-06-10T18:17:36.037Z,24.60
2019-06-10T18:20:09.168Z,24.40
2019-06-10T18:22:38.407Z,24.30
2019-06-10T18:25:08.263Z,24.30
2019-06-10T18:27:37.226Z,24.20
2019-06-10T18:30:11.435Z,24.20
2019-06-10T18:32:37.563Z,24.20
2019-06-10T18:35:08.163Z,24.20
2019-06-10T18:37:37.909Z,24.10
2019-06-10T18:40:09.824Z,24.10
2019-06-10T18:42:39.092Z,24.10
2019-06-10T18:45:12.970Z,24.10
2019-06-10T18:47:42.303Z,24.10
2019-06-10T18:50:13.002Z,24.00
2019-06-10T18:53:03.912Z,24.00
2019-06-10T18:55:35.932Z,24.00
2019-06-10T18:58:02.866Z,24.00
2019-06-10T19:00:54.512Z,24.00
2019-06-10T19:03:12.515Z,24.10
2019-06-10T19:05:38.175Z,23.90
2019-06-10T19:08:08.579Z,23.90
2019-06-10T19:10:38.996Z,23.80
2019-06-10T19:13:08.367Z,23.80
2019-06-10T19:15:40.484Z,23.80
2019-06-10T19:18:13.135Z,23.70
2019-06-10T19:20:42.798Z,23.60
2019-06-10T19:23:16.360Z,23.60
2019-06-10T19:25:44.805Z,23.60
2019-06-10T19:28:13.930Z,23.50
2019-06-10T19:30:44.855Z,23.50
2019-06-10T19:33:13.779Z,23.50
2019-06-10T19:35:44.262Z,23.50
2019-06-10T19:38:13.474Z,23.50
2019-06-10T19:40:44.053Z,23.50
2019-06-10T19:43:13.475Z,23.40
2019-06-10T19:45:43.445Z,23.30
2019-06-10T19:48:12.601Z,23.20
2019-06-10T19:50:48.139Z,23.00
2019-06-10T19:53:13.063Z,22.80
2019-06-10T19:55:44.392Z,22.70
2019-06-10T19:58:13.445Z,22.50
2019-06-10T20:00:50.834Z,22.30
2019-06-10T20:03:14.860Z,22.20
2019-06-10T20:05:46.745Z,22.00
2019-06-10T20:08:14.891Z,21.80
2019-06-10T20:10:45.374Z,21.80
2019-06-10T20:13:14.466Z,21.50
2019-06-10T20:15:45.018Z,21.40
2019-06-10T20:18:15.839Z,21.40
2019-06-10T20:20:47.024Z,21.20
2019-06-10T20:23:15.602Z,21.20
2019-06-10T20:25:46.813Z,21.10
2019-06-10T20:28:15.528Z,21.00
2019-06-10T20:30:47.769Z,20.90
2019-06-10T20:33:16.965Z,20.90
2019-06-10T20:35:46.320Z,20.90
2019-06-10T20:38:16.983Z,20.90
2019-06-10T20:40:47.534Z,20.90
2019-06-10T20:43:17.050Z,20.80
2019-06-10T20:45:47.899Z,20.90
2019-06-10T20:48:16.907Z,20.80
2019-06-10T20:50:47.391Z,20.80
2019-06-10T20:53:18.639Z,20.80
2019-06-10T20:55:52.697Z,20.80
2019-06-10T20:58:18.287Z,20.80
2019-06-10T21:00:52.286Z,20.70
2019-06-10T21:03:18.240Z,20.70
2019-06-10T21:05:50.115Z,20.70
2019-06-10T21:08:19.608Z,20.60
2019-06-10T21:10:50.133Z,20.60
2019-06-10T21:13:19.087Z,20.60
2019-06-10T21:15:50.450Z,20.60
2019-06-10T21:18:19.055Z,20.60
2019-06-10T21:20:50.074Z,20.50
2019-06-10T21:23:18.853Z,20.50
2019-06-10T21:25:50.678Z,20.40
2019-06-10T21:28:18.687Z,20.40
2019-06-10T21:30:53.727Z,20.50
2019-06-10T21:33:18.347Z,20.40
2019-06-10T21:35:50.123Z,20.50
2019-06-10T21:38:19.397Z,20.50
2019-06-10T21:40:48.361Z,20.50
2019-06-10T21:43:17.571Z,20.60
2019-06-10T21:45:51.249Z,20.60
2019-06-10T21:48:17.118Z,20.50
2019-06-10T21:50:48.131Z,20.60
2019-06-10T21:53:16.805Z,20.60
2019-06-10T21:55:46.638Z,20.60
2019-06-10T21:58:15.726Z,20.70
2019-06-10T22:01:03.402Z,20.60
2019-06-10T22:03:19.394Z,20.60
2019-06-10T22:05:49.460Z,20.60
2019-06-10T22:08:18.626Z,20.60
2019-06-10T22:10:48.041Z,20.60
2019-06-10T22:13:29.806Z,20.50
2019-06-10T22:16:06.266Z,20.50
2019-06-10T22:18:39.503Z,20.50
2019-06-10T22:21:08.402Z,20.40
2019-06-10T22:23:37.201Z,20.30
2019-06-10T22:26:06.294Z,20.30
2019-06-10T22:28:35.366Z,20.30
2019-06-10T22:31:15.984Z,20.30
2019-06-10T22:33:34.887Z,20.30
2019-06-10T22:36:03.721Z,20.20
2019-06-10T22:38:32.961Z,20.20
2019-06-10T22:41:03.159Z,20.20
2019-06-10T22:43:32.604Z,20.20
2019-06-10T22:46:03.765Z,20.30
2019-06-10T22:48:33.248Z,20.20
2019-06-10T22:51:02.343Z,20.20
2019-06-10T22:53:33.376Z,20.20
2019-06-10T22:56:02.962Z,20.10
2019-06-10T22:58:32.165Z,20.10
2019-06-10T23:01:01.136Z,20.20
2019-06-10T23:03:30.841Z,20.10
2019-06-10T23:06:02.470Z,19.90
2019-06-10T23:08:30.401Z,20.10
2019-06-10T23:10:59.819Z,20.10
2019-06-10T23:13:28.772Z,20.10
2019-06-10T23:15:58.652Z,20.10
2019-06-10T23:18:28.330Z,20.10
2019-06-10T23:20:57.922Z,20.10
2019-06-10T23:23:27.868Z,20.10
2019-06-10T23:25:57.988Z,20.10
2019-06-10T23:28:27.021Z,19.90
2019-06-10T23:30:58.857Z,20.20
2019-06-10T23:33:26.454Z,20.10
2019-06-10T23:35:56.458Z,20.10
2019-06-10T23:38:25.459Z,20.10
2019-06-10T23:40:54.776Z,20.10
2019-06-10T23:43:23.923Z,20.10
2019-06-10T23:45:53.268Z,20.00
2019-06-10T23:48:22.836Z,20.00
2019-06-10T23:50:53.853Z,20.00
2019-06-10T23:53:23.199Z,20.00
2019-06-10T23:55:54.570Z,19.90
2019-06-10T23:58:25.138Z,19.90
